sensor_id;sensor_type;location;lat;lon;timestamp;P1;durP1;ratioP1;P2;durP2;ratioP2
12852;SDS011;6495;51.808;7.478;2023-10-08T00:02:48;6.72;;;3.42;;
12852;SDS011;6495;51.808;7.478;2023-10-08T00:05:21;6.88;;;3.45;;
12852;SDS011;6495;51.808;7.478;2023-10-08T00:07:52;9.27;;;4.00;;
12852;SDS011;6495;51.808;7.478;2023-10-08T00:10:24;8.25;;;3.42;;
12852;SDS011;6495;51.808;7.478;2023-10-08T00:12:53;7.50;;;3.35;;
12852;SDS011;6495;51.808;7.478;2023-10-08T00:15:22;6.82;;;3.50;;
12852;SDS011;6495;51.808;7.478;2023-10-08T00:17:57;7.03;;;3.28;;
12852;SDS011;6495;51.808;7.478;2023-10-08T00:20:30;8.00;;;3.58;;
12852;SDS011;6495;51.808;7.478;2023-10-08T00:23:12;6.22;;;3.53;;
12852;SDS011;6495;51.808;7.478;2023-10-08T00:25:44;9.18;;;3.33;;
12852;SDS011;6495;51.808;7.478;2023-10-08T00:28:16;7.72;;;3.33;;
12852;SDS011;6495;51.808;7.478;2023-10-08T00:30:47;8.73;;;3.55;;
12852;SDS011;6495;51.808;7.478;2023-10-08T00:33:21;7.78;;;3.42;;
12852;SDS011;6495;51.808;7.478;2023-10-08T00:35:54;8.10;;;3.65;;
12852;SDS011;6495;51.808;7.478;2023-10-08T00:38:24;7.13;;;3.47;;
12852;SDS011;6495;51.808;7.478;2023-10-08T00:40:59;5.63;;;3.42;;
12852;SDS011;6495;51.808;7.478;2023-10-08T00:43:33;6.28;;;3.33;;
12852;SDS011;6495;51.808;7.478;2023-10-08T00:46:03;9.82;;;3.47;;
12852;SDS011;6495;51.808;7.478;2023-10-08T00:48:46;9.23;;;3.50;;
12852;SDS011;6495;51.808;7.478;2023-10-08T00:51:20;5.55;;;3.33;;
12852;SDS011;6495;51.808;7.478;2023-10-08T00:54:00;9.40;;;4.00;;
12852;SDS011;6495;51.808;7.478;2023-10-08T00:56:37;6.43;;;3.50;;
12852;SDS011;6495;51.808;7.478;2023-10-08T00:59:24;8.15;;;3.28;;
12852;SDS011;6495;51.808;7.478;2023-10-08T01:02:00;8.82;;;3.10;;
12852;SDS011;6495;51.808;7.478;2023-10-08T01:04:42;6.75;;;3.50;;
12852;SDS011;6495;51.808;7.478;2023-10-08T01:07:12;6.05;;;3.60;;
12852;SDS011;6495;51.808;7.478;2023-10-08T01:09:46;6.32;;;3.30;;
12852;SDS011;6495;51.808;7.478;2023-10-08T01:12:18;8.45;;;3.47;;
12852;SDS011;6495;51.808;7.478;2023-10-08T01:15:22;7.15;;;3.33;;
12852;SDS011;6495;51.808;7.478;2023-10-08T01:17:56;8.68;;;3.38;;
12852;SDS011;6495;51.808;7.478;2023-10-08T01:20:29;8.32;;;3.80;;
12852;SDS011;6495;51.808;7.478;2023-10-08T01:23:06;9.90;;;3.65;;
12852;SDS011;6495;51.808;7.478;2023-10-08T01:25:40;7.13;;;3.30;;
12852;SDS011;6495;51.808;7.478;2023-10-08T01:28:10;10.13;;;4.30;;
12852;SDS011;6495;51.808;7.478;2023-10-08T01:30:46;11.25;;;4.10;;
12852;SDS011;6495;51.808;7.478;2023-10-08T01:33:20;6.45;;;3.53;;
12852;SDS011;6495;51.808;7.478;2023-10-08T01:35:54;7.72;;;3.28;;
12852;SDS011;6495;51.808;7.478;2023-10-08T01:38:31;6.65;;;3.40;;
12852;SDS011;6495;51.808;7.478;2023-10-08T01:41:01;8.00;;;3.85;;
12852;SDS011;6495;51.808;7.478;2023-10-08T01:43:37;13.27;;;3.95;;
12852;SDS011;6495;51.808;7.478;2023-10-08T01:46:08;7.10;;;4.05;;
12852;SDS011;6495;51.808;7.478;2023-10-08T01:48:42;7.18;;;3.22;;
12852;SDS011;6495;51.808;7.478;2023-10-08T01:51:15;7.13;;;3.50;;
12852;SDS011;6495;51.808;7.478;2023-10-08T01:53:55;10.68;;;4.03;;
12852;SDS011;6495;51.808;7.478;2023-10-08T01:56:27;8.98;;;3.58;;
12852;SDS011;6495;51.808;7.478;2023-10-08T01:58:56;7.70;;;3.63;;
12852;SDS011;6495;51.808;7.478;2023-10-08T02:01:27;7.40;;;3.50;;
12852;SDS011;6495;51.808;7.478;2023-10-08T02:03:56;8.07;;;3.67;;
12852;SDS011;6495;51.808;7.478;2023-10-08T02:06:29;7.57;;;3.35;;
12852;SDS011;6495;51.808;7.478;2023-10-08T02:08:59;8.82;;;3.85;;
12852;SDS011;6495;51.808;7.478;2023-10-08T02:11:41;5.75;;;3.05;;
12852;SDS011;6495;51.808;7.478;2023-10-08T02:14:16;10.15;;;3.72;;
12852;SDS011;6495;51.808;7.478;2023-10-08T02:16:47;6.25;;;3.58;;
12852;SDS011;6495;51.808;7.478;2023-10-08T02:19:16;10.05;;;3.60;;
12852;SDS011;6495;51.808;7.478;2023-10-08T02:21:54;11.07;;;4.13;;
12852;SDS011;6495;51.808;7.478;2023-10-08T02:24:25;8.25;;;3.60;;
12852;SDS011;6495;51.808;7.478;2023-10-08T02:26:56;10.63;;;4.00;;
12852;SDS011;6495;51.808;7.478;2023-10-08T02:29:27;11.30;;;3.83;;
12852;SDS011;6495;51.808;7.478;2023-10-08T02:31:58;6.22;;;3.50;;
12852;SDS011;6495;51.808;7.478;2023-10-08T02:34:25;6.30;;;3.50;;
12852;SDS011;6495;51.808;7.478;2023-10-08T02:36:54;7.30;;;3.42;;
12852;SDS011;6495;51.808;7.478;2023-10-08T02:39:23;12.05;;;4.03;;
12852;SDS011;6495;51.808;7.478;2023-10-08T02:41:54;6.55;;;3.60;;
12852;SDS011;6495;51.808;7.478;2023-10-08T02:44:26;7.95;;;3.25;;
12852;SDS011;6495;51.808;7.478;2023-10-08T02:46:55;8.68;;;3.58;;
12852;SDS011;6495;51.808;7.478;2023-10-08T02:49:23;7.70;;;3.38;;
12852;SDS011;6495;51.808;7.478;2023-10-08T02:51:57;8.20;;;3.63;;
12852;SDS011;6495;51.808;7.478;2023-10-08T02:54:25;5.55;;;3.38;;
12852;SDS011;6495;51.808;7.478;2023-10-08T02:57:04;8.13;;;3.97;;
12852;SDS011;6495;51.808;7.478;2023-10-08T02:59:37;13.02;;;4.30;;
12852;SDS011;6495;51.808;7.478;2023-10-08T03:02:10;7.00;;;3.58;;
12852;SDS011;6495;51.808;7.478;2023-10-08T03:04:46;9.65;;;4.18;;
12852;SDS011;6495;51.808;7.478;2023-10-08T03:07:18;7.75;;;3.80;;
12852;SDS011;6495;51.808;7.478;2023-10-08T03:09:59;10.95;;;3.90;;
12852;SDS011;6495;51.808;7.478;2023-10-08T03:12:33;7.88;;;3.92;;
12852;SDS011;6495;51.808;7.478;2023-10-08T03:15:03;5.75;;;3.83;;
12852;SDS011;6495;51.808;7.478;2023-10-08T03:17:40;7.90;;;3.72;;
12852;SDS011;6495;51.808;7.478;2023-10-08T03:20:18;9.00;;;4.28;;
12852;SDS011;6495;51.808;7.478;2023-10-08T03:23:05;11.13;;;4.10;;
12852;SDS011;6495;51.808;7.478;2023-10-08T03:25:41;7.82;;;4.15;;
12852;SDS011;6495;51.808;7.478;2023-10-08T03:28:14;8.10;;;4.10;;
12852;SDS011;6495;51.808;7.478;2023-10-08T03:30:43;5.90;;;3.60;;
12852;SDS011;6495;51.808;7.478;2023-10-08T03:33:19;8.57;;;3.88;;
12852;SDS011;6495;51.808;7.478;2023-10-08T03:35:53;4.32;;;3.22;;
12852;SDS011;6495;51.808;7.478;2023-10-08T03:38:22;10.15;;;3.65;;
12852;SDS011;6495;51.808;7.478;2023-10-08T03:41:09;9.57;;;3.67;;
12852;SDS011;6495;51.808;7.478;2023-10-08T03:43:44;8.82;;;3.67;;
12852;SDS011;6495;51.808;7.478;2023-10-08T03:46:19;5.45;;;2.60;;
12852;SDS011;6495;51.808;7.478;2023-10-08T03:48:50;5.28;;;2.05;;
12852;SDS011;6495;51.808;7.478;2023-10-08T03:51:19;1.80;;;1.45;;
12852;SDS011;6495;51.808;7.478;2023-10-08T03:53:48;2.40;;;1.70;;
12852;SDS011;6495;51.808;7.478;2023-10-08T03:56:26;4.97;;;1.30;;
12852;SDS011;6495;51.808;7.478;2023-10-08T03:59:04;1.88;;;1.27;;
12852;SDS011;6495;51.808;7.478;2023-10-08T04:01:40;1.60;;;1.40;;
12852;SDS011;6495;51.808;7.478;2023-10-08T04:04:10;3.70;;;1.17;;
12852;SDS011;6495;51.808;7.478;2023-10-08T04:06:41;2.85;;;1.50;;
12852;SDS011;6495;51.808;7.478;2023-10-08T04:09:17;1.25;;;1.13;;
12852;SDS011;6495;51.808;7.478;2023-10-08T04:11:51;1.48;;;1.38;;
12852;SDS011;6495;51.808;7.478;2023-10-08T04:14:26;1.20;;;1.10;;
12852;SDS011;6495;51.808;7.478;2023-10-08T04:16:56;2.90;;;1.20;;
12852;SDS011;6495;51.808;7.478;2023-10-08T04:19:25;1.95;;;1.30;;
12852;SDS011;6495;51.808;7.478;2023-10-08T04:21:54;1.88;;;1.10;;
12852;SDS011;6495;51.808;7.478;2023-10-08T04:24:24;2.78;;;1.20;;
12852;SDS011;6495;51.808;7.478;2023-10-08T04:27:01;1.30;;;1.20;;
12852;SDS011;6495;51.808;7.478;2023-10-08T04:29:34;4.07;;;1.50;;
12852;SDS011;6495;51.808;7.478;2023-10-08T04:32:04;1.27;;;1.10;;
12852;SDS011;6495;51.808;7.478;2023-10-08T04:34:38;1.00;;;1.00;;
12852;SDS011;6495;51.808;7.478;2023-10-08T04:37:12;2.95;;;1.25;;
12852;SDS011;6495;51.808;7.478;2023-10-08T04:39:46;1.20;;;1.10;;
12852;SDS011;6495;51.808;7.478;2023-10-08T04:42:21;1.40;;;1.30;;
12852;SDS011;6495;51.808;7.478;2023-10-08T04:44:54;2.58;;;1.48;;
12852;SDS011;6495;51.808;7.478;2023-10-08T04:47:25;2.00;;;1.85;;
12852;SDS011;6495;51.808;7.478;2023-10-08T04:50:01;2.35;;;1.95;;
12852;SDS011;6495;51.808;7.478;2023-10-08T04:52:33;2.67;;;1.70;;
12852;SDS011;6495;51.808;7.478;2023-10-08T04:55:12;2.05;;;1.80;;
12852;SDS011;6495;51.808;7.478;2023-10-08T04:57:46;2.10;;;1.90;;
12852;SDS011;6495;51.808;7.478;2023-10-08T05:00:19;1.95;;;1.77;;
12852;SDS011;6495;51.808;7.478;2023-10-08T05:03:07;3.05;;;1.95;;
12852;SDS011;6495;51.808;7.478;2023-10-08T05:05:41;2.45;;;2.25;;
12852;SDS011;6495;51.808;7.478;2023-10-08T05:08:29;2.38;;;2.17;;
12852;SDS011;6495;51.808;7.478;2023-10-08T05:10:59;2.20;;;1.90;;
12852;SDS011;6495;51.808;7.478;2023-10-08T05:13:41;2.10;;;1.90;;
12852;SDS011;6495;51.808;7.478;2023-10-08T05:16:30;1.83;;;1.50;;
12852;SDS011;6495;51.808;7.478;2023-10-08T05:19:09;4.82;;;1.50;;
12852;SDS011;6495;51.808;7.478;2023-10-08T05:22:17;1.73;;;1.50;;
12852;SDS011;6495;51.808;7.478;2023-10-08T05:25:06;7.50;;;1.45;;
12852;SDS011;6495;51.808;7.478;2023-10-08T05:27:52;1.63;;;1.50;;
12852;SDS011;6495;51.808;7.478;2023-10-08T05:30:24;1.42;;;1.25;;
12852;SDS011;6495;51.808;7.478;2023-10-08T05:33:06;2.88;;;1.58;;
12852;SDS011;6495;51.808;7.478;2023-10-08T05:35:52;1.30;;;1.20;;
12852;SDS011;6495;51.808;7.478;2023-10-08T05:38:36;1.33;;;1.23;;
12852;SDS011;6495;51.808;7.478;2023-10-08T05:41:26;1.63;;;1.25;;
12852;SDS011;6495;51.808;7.478;2023-10-08T05:43:57;3.50;;;1.30;;
12852;SDS011;6495;51.808;7.478;2023-10-08T05:46:41;2.50;;;1.60;;
12852;SDS011;6495;51.808;7.478;2023-10-08T05:49:34;2.08;;;1.70;;
12852;SDS011;6495;51.808;7.478;2023-10-08T05:52:19;2.30;;;1.90;;
12852;SDS011;6495;51.808;7.478;2023-10-08T05:55:07;1.70;;;1.50;;
12852;SDS011;6495;51.808;7.478;2023-10-08T05:57:53;1.85;;;1.75;;
12852;SDS011;6495;51.808;7.478;2023-10-08T06:00:40;2.00;;;1.75;;
12852;SDS011;6495;51.808;7.478;2023-10-08T06:03:32;1.90;;;1.80;;
12852;SDS011;6495;51.808;7.478;2023-10-08T06:06:06;2.67;;;1.90;;
12852;SDS011;6495;51.808;7.478;2023-10-08T06:09:02;2.15;;;1.95;;
12852;SDS011;6495;51.808;7.478;2023-10-08T06:11:47;2.47;;;2.03;;
12852;SDS011;6495;51.808;7.478;2023-10-08T06:14:34;2.60;;;2.10;;
12852;SDS011;6495;51.808;7.478;2023-10-08T06:17:35;2.30;;;2.10;;
12852;SDS011;6495;51.808;7.478;2023-10-08T06:20:25;2.28;;;1.98;;
12852;SDS011;6495;51.808;7.478;2023-10-08T06:22:55;4.43;;;2.15;;
12852;SDS011;6495;51.808;7.478;2023-10-08T06:25:30;1.52;;;1.42;;
12852;SDS011;6495;51.808;7.478;2023-10-08T06:27:58;1.60;;;1.50;;
12852;SDS011;6495;51.808;7.478;2023-10-08T06:30:29;1.60;;;1.50;;
12852;SDS011;6495;51.808;7.478;2023-10-08T06:33:01;1.15;;;1.05;;
12852;SDS011;6495;51.808;7.478;2023-10-08T06:35:31;1.20;;;1.10;;
12852;SDS011;6495;51.808;7.478;2023-10-08T06:38:02;2.17;;;1.50;;
12852;SDS011;6495;51.808;7.478;2023-10-08T06:40:35;1.75;;;1.42;;
12852;SDS011;6495;51.808;7.478;2023-10-08T06:43:11;2.00;;;1.20;;
12852;SDS011;6495;51.808;7.478;2023-10-08T06:45:41;1.30;;;1.20;;
12852;SDS011;6495;51.808;7.478;2023-10-08T06:48:13;1.30;;;1.20;;
12852;SDS011;6495;51.808;7.478;2023-10-08T06:50:48;1.23;;;1.10;;
12852;SDS011;6495;51.808;7.478;2023-10-08T06:53:25;1.10;;;1.00;;
12852;SDS011;6495;51.808;7.478;2023-10-08T06:55:56;0.70;;;0.70;;
12852;SDS011;6495;51.808;7.478;2023-10-08T06:58:30;0.77;;;0.77;;
12852;SDS011;6495;51.808;7.478;2023-10-08T07:00:59;0.73;;;0.73;;
12852;SDS011;6495;51.808;7.478;2023-10-08T07:03:32;0.68;;;0.68;;
12852;SDS011;6495;51.808;7.478;2023-10-08T07:06:01;0.60;;;0.60;;
12852;SDS011;6495;51.808;7.478;2023-10-08T07:08:44;0.40;;;0.40;;
12852;SDS011;6495;51.808;7.478;2023-10-08T07:11:21;1.08;;;0.60;;
12852;SDS011;6495;51.808;7.478;2023-10-08T07:13:50;0.50;;;0.50;;
12852;SDS011;6495;51.808;7.478;2023-10-08T07:16:18;0.52;;;0.52;;
12852;SDS011;6495;51.808;7.478;2023-10-08T07:18:47;0.82;;;0.75;;
12852;SDS011;6495;51.808;7.478;2023-10-08T07:21:18;0.70;;;0.70;;
12852;SDS011;6495;51.808;7.478;2023-10-08T07:23:56;0.85;;;0.85;;
12852;SDS011;6495;51.808;7.478;2023-10-08T07:26:26;0.70;;;0.70;;
12852;SDS011;6495;51.808;7.478;2023-10-08T07:29:03;0.70;;;0.70;;
12852;SDS011;6495;51.808;7.478;2023-10-08T07:31:35;0.80;;;0.80;;
12852;SDS011;6495;51.808;7.478;2023-10-08T07:34:08;0.70;;;0.70;;
12852;SDS011;6495;51.808;7.478;2023-10-08T07:36:52;0.60;;;0.60;;
12852;SDS011;6495;51.808;7.478;2023-10-08T07:39:24;0.40;;;0.40;;
12852;SDS011;6495;51.808;7.478;2023-10-08T07:42:00;0.80;;;0.80;;
12852;SDS011;6495;51.808;7.478;2023-10-08T07:44:31;0.85;;;0.80;;
12852;SDS011;6495;51.808;7.478;2023-10-08T07:47:03;0.77;;;0.77;;
12852;SDS011;6495;51.808;7.478;2023-10-08T07:49:36;1.92;;;0.68;;
12852;SDS011;6495;51.808;7.478;2023-10-08T07:52:05;2.53;;;1.30;;
12852;SDS011;6495;51.808;7.478;2023-10-08T07:54:35;0.98;;;0.85;;
12852;SDS011;6495;51.808;7.478;2023-10-08T07:57:03;0.93;;;0.82;;
12852;SDS011;6495;51.808;7.478;2023-10-08T07:59:45;2.85;;;0.95;;
12852;SDS011;6495;51.808;7.478;2023-10-08T08:02:15;1.13;;;0.90;;
12852;SDS011;6495;51.808;7.478;2023-10-08T08:04:50;2.60;;;0.90;;
12852;SDS011;6495;51.808;7.478;2023-10-08T08:07:20;2.58;;;0.70;;
12852;SDS011;6495;51.808;7.478;2023-10-08T08:10:03;1.05;;;0.70;;
12852;SDS011;6495;51.808;7.478;2023-10-08T08:12:38;3.38;;;1.17;;
12852;SDS011;6495;51.808;7.478;2023-10-08T08:15:07;1.80;;;0.85;;
12852;SDS011;6495;51.808;7.478;2023-10-08T08:21:45;4.13;;;1.15;;
12852;SDS011;6495;51.808;7.478;2023-10-08T08:24:14;1.77;;;0.98;;
12852;SDS011;6495;51.808;7.478;2023-10-08T08:27:00;2.55;;;0.90;;
12852;SDS011;6495;51.808;7.478;2023-10-08T08:29:41;1.58;;;0.80;;
12852;SDS011;6495;51.808;7.478;2023-10-08T08:32:35;1.08;;;0.68;;
12852;SDS011;6495;51.808;7.478;2023-10-08T08:35:08;3.83;;;0.90;;
12852;SDS011;6495;51.808;7.478;2023-10-08T08:37:39;1.02;;;0.80;;
12852;SDS011;6495;51.808;7.478;2023-10-08T08:40:17;0.82;;;0.68;;
12852;SDS011;6495;51.808;7.478;2023-10-08T08:43:06;1.85;;;0.75;;
12852;SDS011;6495;51.808;7.478;2023-10-08T08:46:33;1.77;;;0.90;;
12852;SDS011;6495;51.808;7.478;2023-10-08T08:52:09;1.73;;;0.93;;
12852;SDS011;6495;51.808;7.478;2023-10-08T08:54:43;1.05;;;0.70;;
12852;SDS011;6495;51.808;7.478;2023-10-08T08:57:15;2.70;;;1.05;;
12852;SDS011;6495;51.808;7.478;2023-10-08T09:00:02;1.98;;;1.02;;
12852;SDS011;6495;51.808;7.478;2023-10-08T09:02:48;1.63;;;0.77;;
12852;SDS011;6495;51.808;7.478;2023-10-08T09:05:21;1.98;;;1.08;;
12852;SDS011;6495;51.808;7.478;2023-10-08T09:08:11;5.18;;;1.02;;
12852;SDS011;6495;51.808;7.478;2023-10-08T09:15:58;3.50;;;1.23;;
12852;SDS011;6495;51.808;7.478;2023-10-08T09:18:35;3.25;;;1.35;;
12852;SDS011;6495;51.808;7.478;2023-10-08T09:21:09;5.18;;;1.60;;
12852;SDS011;6495;51.808;7.478;2023-10-08T09:25:11;4.60;;;0.90;;
12852;SDS011;6495;51.808;7.478;2023-10-08T09:27:41;4.15;;;1.08;;
12852;SDS011;6495;51.808;7.478;2023-10-08T09:30:13;3.67;;;0.85;;
12852;SDS011;6495;51.808;7.478;2023-10-08T09:32:47;7.35;;;1.45;;
12852;SDS011;6495;51.808;7.478;2023-10-08T09:35:17;5.50;;;0.90;;
12852;SDS011;6495;51.808;7.478;2023-10-08T09:37:47;1.73;;;0.77;;
12852;SDS011;6495;51.808;7.478;2023-10-08T09:40:15;2.47;;;1.10;;
12852;SDS011;6495;51.808;7.478;2023-10-08T09:42:47;6.07;;;1.42;;
12852;SDS011;6495;51.808;7.478;2023-10-08T09:45:16;2.75;;;1.25;;
12852;SDS011;6495;51.808;7.478;2023-10-08T09:48:05;2.17;;;1.40;;
12852;SDS011;6495;51.808;7.478;2023-10-08T09:50:40;3.17;;;1.17;;
12852;SDS011;6495;51.808;7.478;2023-10-08T09:53:16;1.67;;;1.15;;
12852;SDS011;6495;51.808;7.478;2023-10-08T09:55:58;4.80;;;1.45;;
12852;SDS011;6495;51.808;7.478;2023-10-08T09:58:31;6.32;;;1.50;;
12852;SDS011;6495;51.808;7.478;2023-10-08T10:01:00;4.75;;;1.05;;
12852;SDS011;6495;51.808;7.478;2023-10-08T10:03:32;3.40;;;1.00;;
12852;SDS011;6495;51.808;7.478;2023-10-08T10:09:01;4.82;;;1.30;;
12852;SDS011;6495;51.808;7.478;2023-10-08T10:11:37;4.03;;;1.20;;
12852;SDS011;6495;51.808;7.478;2023-10-08T10:14:09;4.00;;;1.30;;
12852;SDS011;6495;51.808;7.478;2023-10-08T10:16:40;2.50;;;1.08;;
12852;SDS011;6495;51.808;7.478;2023-10-08T10:19:17;4.57;;;1.00;;
12852;SDS011;6495;51.808;7.478;2023-10-08T10:21:49;4.18;;;1.15;;
12852;SDS011;6495;51.808;7.478;2023-10-08T10:24:23;3.42;;;1.02;;
12852;SDS011;6495;51.808;7.478;2023-10-08T10:27:09;2.30;;;1.10;;
12852;SDS011;6495;51.808;7.478;2023-10-08T10:29:39;2.33;;;1.10;;
12852;SDS011;6495;51.808;7.478;2023-10-08T10:32:13;1.25;;;0.77;;
12852;SDS011;6495;51.808;7.478;2023-10-08T10:34:44;1.33;;;0.80;;
12852;SDS011;6495;51.808;7.478;2023-10-08T10:37:18;1.80;;;1.20;;
12852;SDS011;6495;51.808;7.478;2023-10-08T10:43:10;3.58;;;1.30;;
12852;SDS011;6495;51.808;7.478;2023-10-08T10:45:48;2.85;;;1.10;;
12852;SDS011;6495;51.808;7.478;2023-10-08T10:49:04;3.13;;;1.00;;
12852;SDS011;6495;51.808;7.478;2023-10-08T10:51:47;2.55;;;0.93;;
12852;SDS011;6495;51.808;7.478;2023-10-08T10:54:24;1.50;;;0.95;;
12852;SDS011;6495;51.808;7.478;2023-10-08T10:57:05;2.97;;;1.38;;
12852;SDS011;6495;51.808;7.478;2023-10-08T10:59:53;3.95;;;0.85;;
12852;SDS011;6495;51.808;7.478;2023-10-08T11:02:21;1.73;;;1.02;;
12852;SDS011;6495;51.808;7.478;2023-10-08T11:04:59;1.55;;;0.70;;
12852;SDS011;6495;51.808;7.478;2023-10-08T11:07:38;3.15;;;1.42;;
12852;SDS011;6495;51.808;7.478;2023-10-08T11:10:13;3.70;;;1.48;;
12852;SDS011;6495;51.808;7.478;2023-10-08T11:12:44;2.28;;;1.20;;
12852;SDS011;6495;51.808;7.478;2023-10-08T11:15:20;2.25;;;1.10;;
12852;SDS011;6495;51.808;7.478;2023-10-08T11:17:49;2.75;;;1.23;;
12852;SDS011;6495;51.808;7.478;2023-10-08T11:20:22;7.82;;;1.20;;
12852;SDS011;6495;51.808;7.478;2023-10-08T11:22:58;3.78;;;1.60;;
12852;SDS011;6495;51.808;7.478;2023-10-08T11:25:57;3.85;;;1.10;;
12852;SDS011;6495;51.808;7.478;2023-10-08T11:28:48;2.70;;;1.13;;
12852;SDS011;6495;51.808;7.478;2023-10-08T11:31:33;4.70;;;1.15;;
12852;SDS011;6495;51.808;7.478;2023-10-08T11:34:04;3.53;;;1.40;;
12852;SDS011;6495;51.808;7.478;2023-10-08T11:36:36;4.18;;;1.02;;
12852;SDS011;6495;51.808;7.478;2023-10-08T11:39:24;7.10;;;1.30;;
12852;SDS011;6495;51.808;7.478;2023-10-08T11:42:17;3.42;;;0.90;;
12852;SDS011;6495;51.808;7.478;2023-10-08T11:45:07;2.30;;;1.02;;
12852;SDS011;6495;51.808;7.478;2023-10-08T11:47:45;5.63;;;1.40;;
12852;SDS011;6495;51.808;7.478;2023-10-08T11:50:15;2.03;;;1.27;;
12852;SDS011;6495;51.808;7.478;2023-10-08T11:52:46;2.33;;;1.10;;
12852;SDS011;6495;51.808;7.478;2023-10-08T11:55:19;2.63;;;1.05;;
12852;SDS011;6495;51.808;7.478;2023-10-08T11:57:55;2.85;;;1.00;;
12852;SDS011;6495;51.808;7.478;2023-10-08T12:01:53;4.78;;;1.35;;
12852;SDS011;6495;51.808;7.478;2023-10-08T12:04:23;4.32;;;1.20;;
12852;SDS011;6495;51.808;7.478;2023-10-08T12:06:56;2.15;;;0.93;;
12852;SDS011;6495;51.808;7.478;2023-10-08T12:09:28;1.73;;;0.75;;
12852;SDS011;6495;51.808;7.478;2023-10-08T12:12:00;3.58;;;1.13;;
12852;SDS011;6495;51.808;7.478;2023-10-08T12:14:36;6.10;;;1.10;;
12852;SDS011;6495;51.808;7.478;2023-10-08T12:17:04;1.67;;;1.33;;
12852;SDS011;6495;51.808;7.478;2023-10-08T12:19:41;2.50;;;1.00;;
12852;SDS011;6495;51.808;7.478;2023-10-08T12:22:13;4.25;;;1.30;;
12852;SDS011;6495;51.808;7.478;2023-10-08T12:24:46;3.58;;;1.20;;
12852;SDS011;6495;51.808;7.478;2023-10-08T12:27:21;3.88;;;1.33;;
12852;SDS011;6495;51.808;7.478;2023-10-08T12:29:51;1.33;;;1.00;;
12852;SDS011;6495;51.808;7.478;2023-10-08T12:32:23;3.03;;;1.10;;
12852;SDS011;6495;51.808;7.478;2023-10-08T12:34:52;2.53;;;1.00;;
12852;SDS011;6495;51.808;7.478;2023-10-08T12:37:22;1.70;;;1.00;;
12852;SDS011;6495;51.808;7.478;2023-10-08T12:39:53;3.25;;;1.00;;
12852;SDS011;6495;51.808;7.478;2023-10-08T12:42:29;4.90;;;1.10;;
12852;SDS011;6495;51.808;7.478;2023-10-08T12:45:06;2.88;;;0.90;;
12852;SDS011;6495;51.808;7.478;2023-10-08T12:47:39;2.03;;;0.63;;
12852;SDS011;6495;51.808;7.478;2023-10-08T12:50:08;1.98;;;1.10;;
12852;SDS011;6495;51.808;7.478;2023-10-08T12:52:42;0.98;;;0.90;;
12852;SDS011;6495;51.808;7.478;2023-10-08T12:55:19;1.48;;;0.73;;
12852;SDS011;6495;51.808;7.478;2023-10-08T12:57:54;2.33;;;1.10;;
12852;SDS011;6495;51.808;7.478;2023-10-08T13:00:30;1.85;;;0.85;;
12852;SDS011;6495;51.808;7.478;2023-10-08T13:02:58;3.05;;;1.20;;
12852;SDS011;6495;51.808;7.478;2023-10-08T13:05:34;2.92;;;0.98;;
12852;SDS011;6495;51.808;7.478;2023-10-08T13:08:10;1.05;;;0.80;;
12852;SDS011;6495;51.808;7.478;2023-10-08T13:10:41;3.40;;;1.05;;
12852;SDS011;6495;51.808;7.478;2023-10-08T13:13:13;4.72;;;0.88;;
12852;SDS011;6495;51.808;7.478;2023-10-08T13:15:42;1.02;;;0.40;;
12852;SDS011;6495;51.808;7.478;2023-10-08T13:18:15;0.73;;;0.55;;
12852;SDS011;6495;51.808;7.478;2023-10-08T13:20:45;3.40;;;1.00;;
12852;SDS011;6495;51.808;7.478;2023-10-08T13:23:17;1.95;;;1.08;;
12852;SDS011;6495;51.808;7.478;2023-10-08T13:25:47;3.58;;;0.80;;
12852;SDS011;6495;51.808;7.478;2023-10-08T13:28:22;2.17;;;0.82;;
12852;SDS011;6495;51.808;7.478;2023-10-08T13:30:53;2.58;;;0.80;;
12852;SDS011;6495;51.808;7.478;2023-10-08T13:33:22;2.13;;;0.80;;
12852;SDS011;6495;51.808;7.478;2023-10-08T13:35:54;1.88;;;0.68;;
12852;SDS011;6495;51.808;7.478;2023-10-08T13:38:43;1.05;;;0.65;;
12852;SDS011;6495;51.808;7.478;2023-10-08T13:41:13;1.83;;;1.08;;
12852;SDS011;6495;51.808;7.478;2023-10-08T13:43:47;1.27;;;0.60;;
12852;SDS011;6495;51.808;7.478;2023-10-08T13:46:19;2.53;;;0.98;;
12852;SDS011;6495;51.808;7.478;2023-10-08T13:48:49;1.05;;;0.70;;
12852;SDS011;6495;51.808;7.478;2023-10-08T13:51:18;2.10;;;0.70;;
12852;SDS011;6495;51.808;7.478;2023-10-08T13:53:52;1.40;;;0.68;;
12852;SDS011;6495;51.808;7.478;2023-10-08T13:56:27;1.08;;;0.70;;
12852;SDS011;6495;51.808;7.478;2023-10-08T13:59:02;3.03;;;0.60;;
12852;SDS011;6495;51.808;7.478;2023-10-08T14:01:39;0.80;;;0.63;;
12852;SDS011;6495;51.808;7.478;2023-10-08T14:04:13;2.55;;;0.70;;
12852;SDS011;6495;51.808;7.478;2023-10-08T14:06:46;2.20;;;0.80;;
12852;SDS011;6495;51.808;7.478;2023-10-08T14:09:20;0.90;;;0.80;;
12852;SDS011;6495;51.808;7.478;2023-10-08T14:11:58;2.45;;;0.68;;
12852;SDS011;6495;51.808;7.478;2023-10-08T14:14:29;2.58;;;0.88;;
12852;SDS011;6495;51.808;7.478;2023-10-08T14:16:58;2.70;;;0.82;;
12852;SDS011;6495;51.808;7.478;2023-10-08T14:19:33;1.00;;;0.60;;
12852;SDS011;6495;51.808;7.478;2023-10-08T14:22:08;1.27;;;0.82;;
12852;SDS011;6495;51.808;7.478;2023-10-08T14:24:41;1.30;;;0.63;;
12852;SDS011;6495;51.808;7.478;2023-10-08T14:27:13;1.50;;;0.70;;
12852;SDS011;6495;51.808;7.478;2023-10-08T14:29:44;1.05;;;0.70;;
12852;SDS011;6495;51.808;7.478;2023-10-08T14:32:17;2.25;;;1.08;;
12852;SDS011;6495;51.808;7.478;2023-10-08T14:34:46;1.48;;;0.80;;
12852;SDS011;6495;51.808;7.478;2023-10-08T14:37:32;4.68;;;1.05;;
12852;SDS011;6495;51.808;7.478;2023-10-08T14:40:21;1.52;;;0.80;;
12852;SDS011;6495;51.808;7.478;2023-10-08T14:43:07;1.40;;;0.88;;
12852;SDS011;6495;51.808;7.478;2023-10-08T14:45:39;0.82;;;0.70;;
12852;SDS011;6495;51.808;7.478;2023-10-08T14:48:07;1.45;;;0.93;;
12852;SDS011;6495;51.808;7.478;2023-10-08T14:50:40;1.70;;;0.63;;
12852;SDS011;6495;51.808;7.478;2023-10-08T14:53:10;3.53;;;0.90;;
12852;SDS011;6495;51.808;7.478;2023-10-08T14:55:41;1.08;;;0.63;;
12852;SDS011;6495;51.808;7.478;2023-10-08T14:58:13;1.33;;;0.90;;
12852;SDS011;6495;51.808;7.478;2023-10-08T15:00:45;1.65;;;1.10;;
12852;SDS011;6495;51.808;7.478;2023-10-08T15:03:15;3.92;;;1.10;;
12852;SDS011;6495;51.808;7.478;2023-10-08T15:05:44;2.13;;;0.75;;
12852;SDS011;6495;51.808;7.478;2023-10-08T15:08:17;3.50;;;1.10;;
12852;SDS011;6495;51.808;7.478;2023-10-08T15:10:48;2.03;;;0.90;;
12852;SDS011;6495;51.808;7.478;2023-10-08T15:13:20;0.73;;;0.52;;
12852;SDS011;6495;51.808;7.478;2023-10-08T15:15:52;2.72;;;1.00;;
12852;SDS011;6495;51.808;7.478;2023-10-08T15:18:22;1.05;;;0.80;;
12852;SDS011;6495;51.808;7.478;2023-10-08T15:21:05;2.63;;;1.05;;
12852;SDS011;6495;51.808;7.478;2023-10-08T15:23:38;1.40;;;0.85;;
12852;SDS011;6495;51.808;7.478;2023-10-08T15:26:13;2.30;;;0.70;;
12852;SDS011;6495;51.808;7.478;2023-10-08T15:28:50;3.95;;;0.98;;
12852;SDS011;6495;51.808;7.478;2023-10-08T15:31:22;0.98;;;0.70;;
12852;SDS011;6495;51.808;7.478;2023-10-08T15:34:03;1.05;;;0.73;;
12852;SDS011;6495;51.808;7.478;2023-10-08T15:36:34;0.93;;;0.88;;
12852;SDS011;6495;51.808;7.478;2023-10-08T15:39:04;3.67;;;0.98;;
12852;SDS011;6495;51.808;7.478;2023-10-08T15:41:36;2.80;;;1.08;;
12852;SDS011;6495;51.808;7.478;2023-10-08T15:44:09;1.30;;;0.90;;
12852;SDS011;6495;51.808;7.478;2023-10-08T15:46:39;2.67;;;1.00;;
12852;SDS011;6495;51.808;7.478;2023-10-08T15:49:09;2.83;;;1.10;;
12852;SDS011;6495;51.808;7.478;2023-10-08T15:51:39;1.27;;;0.60;;
12852;SDS011;6495;51.808;7.478;2023-10-08T15:54:09;4.88;;;0.93;;
12852;SDS011;6495;51.808;7.478;2023-10-08T15:56:41;1.30;;;0.68;;
12852;SDS011;6495;51.808;7.478;2023-10-08T15:59:09;3.58;;;1.02;;
12852;SDS011;6495;51.808;7.478;2023-10-08T16:01:40;3.00;;;0.82;;
12852;SDS011;6495;51.808;7.478;2023-10-08T16:04:12;5.13;;;0.93;;
12852;SDS011;6495;51.808;7.478;2023-10-08T16:06:41;1.10;;;0.80;;
12852;SDS011;6495;51.808;7.478;2023-10-08T16:09:10;1.52;;;0.80;;
12852;SDS011;6495;51.808;7.478;2023-10-08T16:11:38;4.90;;;1.17;;